sensor_id;sensor_type;location;lat;lon;timestamp;pressure;altitude;pressure_sealevel;temperature;humidity
21361;BME280;10839;43.206;23.550;2024-02-21T00:01:05;97872.09;;;8.79;92.20
21361;BME280;10839;43.206;23.550;2024-02-21T00:03:31;97880.81;;;8.65;92.72
21361;BME280;10839;43.206;23.550;2024-02-21T00:05:56;97873.72;;;8.56;95.19
21361;BME280;10839;43.206;23.550;2024-02-21T00:08:22;97868.09;;;8.83;92.92
21361;BME280;10839;43.206;23.550;2024-02-21T00:10:47;97873.41;;;8.67;90.70
21361;BME280;10839;43.206;23.550;2024-02-21T00:13:14;97851.09;;;8.09;95.66
21361;BME280;10839;43.206;23.550;2024-02-21T00:15:40;97862.63;;;8.35;96.49
21361;BME280;10839;43.206;23.550;2024-02-21T00:18:05;97867.06;;;8.76;93.61
21361;BME280;10839;43.206;23.550;2024-02-21T00:20:31;97873.41;;;8.67;90.97
21361;BME280;10839;43.206;23.550;2024-02-21T00:22:56;97875.72;;;8.46;93.02
21361;BME280;10839;43.206;23.550;2024-02-21T00:25:22;97866.22;;;8.75;91.33
21361;BME280;10839;43.206;23.550;2024-02-21T00:27:47;97862.38;;;8.86;89.38
21361;BME280;10839;43.206;23.550;2024-02-21T00:30:13;97854.97;;;8.72;87.66
21361;BME280;10839;43.206;23.550;2024-02-21T00:32:38;97861.81;;;8.50;91.64
21361;BME280;10839;43.206;23.550;2024-02-21T00:35:04;97860.34;;;8.72;91.12
21361;BME280;10839;43.206;23.550;2024-02-21T00:37:31;97857.00;;;8.86;87.64
21361;BME280;10839;43.206;23.550;2024-02-21T00:39:57;97865.06;;;8.70;88.82
21361;BME280;10839;43.206;23.550;2024-02-21T00:42:22;97847.06;;;8.38;89.80
21361;BME280;10839;43.206;23.550;2024-02-21T00:44:48;97856.97;;;8.54;90.68
21361;BME280;10839;43.206;23.550;2024-02-21T00:47:13;97851.47;;;8.79;87.61
21361;BME280;10839;43.206;23.550;2024-02-21T00:49:38;97842.88;;;8.52;86.74
21361;BME280;10839;43.206;23.550;2024-02-21T00:52:04;97846.56;;;8.51;87.25
21361;BME280;10839;43.206;23.550;2024-02-21T00:54:30;97837.88;;;8.73;85.70
21361;BME280;10839;43.206;23.550;2024-02-21T00:56:55;97841.75;;;8.86;84.49
21361;BME280;10839;43.206;23.550;2024-02-21T00:59:21;97840.56;;;8.65;85.25
21361;BME280;10839;43.206;23.550;2024-02-21T01:01:46;97819.06;;;8.41;88.05
21361;BME280;10839;43.206;23.550;2024-02-21T01:04:12;97831.50;;;8.58;87.16
21361;BME280;10839;43.206;23.550;2024-02-21T01:06:37;97824.63;;;8.79;86.74
21361;BME280;10839;43.206;23.550;2024-02-21T01:09:03;97821.41;;;8.52;86.03
21361;BME280;10839;43.206;23.550;2024-02-21T01:11:29;97826.66;;;8.61;86.08
21361;BME280;10839;43.206;23.550;2024-02-21T01:13:55;97833.00;;;8.68;85.61
21361;BME280;10839;43.206;23.550;2024-02-21T01:16:21;97827.31;;;8.79;85.15
21361;BME280;10839;43.206;23.550;2024-02-21T01:18:46;97815.75;;;8.71;85.69
21361;BME280;10839;43.206;23.550;2024-02-21T01:21:11;97824.47;;;8.73;86.38
21361;BME280;10839;43.206;23.550;2024-02-21T01:23:37;97812.88;;;8.72;86.05
21361;BME280;10839;43.206;23.550;2024-02-21T01:26:03;97821.78;;;8.81;84.87
21361;BME280;10839;43.206;23.550;2024-02-21T01:28:29;97808.34;;;8.41;86.07
21361;BME280;10839;43.206;23.550;2024-02-21T01:30:56;97817.56;;;8.62;85.31
21361;BME280;10839;43.206;23.550;2024-02-21T01:33:22;97807.69;;;8.63;86.78
21361;BME280;10839;43.206;23.550;2024-02-21T01:35:47;97806.84;;;8.78;85.07
21361;BME280;10839;43.206;23.550;2024-02-21T01:38:14;97806.00;;;8.46;87.45
21361;BME280;10839;43.206;23.550;2024-02-21T01:40:39;97804.63;;;8.42;87.34
21361;BME280;10839;43.206;23.550;2024-02-21T01:43:15;97822.09;;;8.54;88.55
21361;BME280;10839;43.206;23.550;2024-02-21T01:45:41;97812.03;;;8.64;88.55
21361;BME280;10839;43.206;23.550;2024-02-21T01:48:07;97810.19;;;8.48;90.48
21361;BME280;10839;43.206;23.550;2024-02-21T01:50:33;97802.00;;;8.58;89.35
21361;BME280;10839;43.206;23.550;2024-02-21T01:52:59;97813.91;;;8.79;87.40
21361;BME280;10839;43.206;23.550;2024-02-21T01:55:25;97807.47;;;8.24;90.01
21361;BME280;10839;43.206;23.550;2024-02-21T01:57:51;97812.97;;;8.23;92.67
21361;BME280;10839;43.206;23.550;2024-02-21T02:00:17;97799.88;;;8.20;92.54
21361;BME280;10839;43.206;23.550;2024-02-21T02:02:43;97813.38;;;8.52;92.12
21361;BME280;10839;43.206;23.550;2024-02-21T02:05:10;97808.63;;;8.22;94.62
21361;BME280;10839;43.206;23.550;2024-02-21T02:07:36;97794.59;;;8.36;94.71
21361;BME280;10839;43.206;23.550;2024-02-21T02:10:01;97794.94;;;8.49;90.52
21361;BME280;10839;43.206;23.550;2024-02-21T02:12:27;97790.56;;;8.40;90.73
21361;BME280;10839;43.206;23.550;2024-02-21T02:15:03;97809.91;;;8.10;97.18
21361;BME280;10839;43.206;23.550;2024-02-21T02:17:30;97795.16;;;8.06;98.97
21361;BME280;10839;43.206;23.550;2024-02-21T02:19:56;97807.59;;;8.15;98.25
21361;BME280;10839;43.206;23.550;2024-02-21T02:22:31;97778.72;;;8.01;97.92
21361;BME280;10839;43.206;23.550;2024-02-21T02:24:58;97790.63;;;7.98;99.91
21361;BME280;10839;43.206;23.550;2024-02-21T02:27:24;97797.84;;;8.06;100.00
21361;BME280;10839;43.206;23.550;2024-02-21T02:29:50;97791.13;;;8.02;97.75
21361;BME280;10839;43.206;23.550;2024-02-21T02:32:15;97799.94;;;7.78;100.00
21361;BME280;10839;43.206;23.550;2024-02-21T02:34:41;97789.69;;;7.73;100.00
21361;BME280;10839;43.206;23.550;2024-02-21T02:37:06;97773.75;;;7.72;100.00
21361;BME280;10839;43.206;23.550;2024-02-21T02:39:32;97791.13;;;8.02;99.63
21361;BME280;10839;43.206;23.550;2024-02-21T02:41:57;97790.09;;;7.87;98.92
21361;BME280;10839;43.206;23.550;2024-02-21T02:44:23;97779.00;;;7.82;100.00
21361;BME280;10839;43.206;23.550;2024-02-21T02:46:49;97784.03;;;7.85;100.00
21361;BME280;10839;43.206;23.550;2024-02-21T02:49:14;97788.38;;;7.77;100.00
21361;BME280;10839;43.206;23.550;2024-02-21T02:51:43;97783.56;;;7.55;100.00
21361;BME280;10839;43.206;23.550;2024-02-21T02:54:09;97785.78;;;7.60;100.00
21361;BME280;10839;43.206;23.550;2024-02-21T02:56:35;97788.94;;;7.55;100.00
21361;BME280;10839;43.206;23.550;2024-02-21T02:59:01;97767.84;;;7.52;100.00
21361;BME280;10839;43.206;23.550;2024-02-21T03:01:26;97797.19;;;7.28;100.00
21361;BME280;10839;43.206;23.550;2024-02-21T03:03:52;97797.59;;;7.41;100.00
21361;BME280;10839;43.206;23.550;2024-02-21T03:06:18;97789.59;;;7.49;100.00
21361;BME280;10839;43.206;23.550;2024-02-21T03:08:43;97781.19;;;7.44;100.00
21361;BME280;10839;43.206;23.550;2024-02-21T03:11:09;97787.00;;;7.32;100.00
21361;BME280;10839;43.206;23.550;2024-02-21T03:13:36;97786.03;;;7.41;100.00
21361;BME280;10839;43.206;23.550;2024-02-21T03:16:01;97789.38;;;7.43;100.00
21361;BME280;10839;43.206;23.550;2024-02-21T03:18:27;97794.00;;;7.33;100.00
21361;BME280;10839;43.206;23.550;2024-02-21T03:20:52;97800.50;;;7.30;100.00
21361;BME280;10839;43.206;23.550;2024-02-21T03:23:18;97806.19;;;7.27;100.00
21361;BME280;10839;43.206;23.550;2024-02-21T03:25:43;97813.63;;;7.41;100.00
21361;BME280;10839;43.206;23.550;2024-02-21T03:28:09;97812.91;;;7.31;100.00
21361;BME280;10839;43.206;23.550;2024-02-21T03:30:34;97809.13;;;7.16;100.00
21361;BME280;10839;43.206;23.550;2024-02-21T03:33:00;97798.63;;;6.97;100.00
21361;BME280;10839;43.206;23.550;2024-02-21T03:35:26;97815.59;;;7.31;100.00
21361;BME280;10839;43.206;23.550;2024-02-21T03:37:52;97810.28;;;6.88;100.00
21361;BME280;10839;43.206;23.550;2024-02-21T03:40:18;97814.38;;;7.26;100.00
21361;BME280;10839;43.206;23.550;2024-02-21T03:42:43;97814.59;;;7.32;100.00
21361;BME280;10839;43.206;23.550;2024-02-21T03:45:09;97810.94;;;7.33;100.00
21361;BME280;10839;43.206;23.550;2024-02-21T03:47:35;97795.16;;;7.30;100.00
21361;BME280;10839;43.206;23.550;2024-02-21T03:50:00;97812.75;;;7.33;100.00
21361;BME280;10839;43.206;23.550;2024-02-21T03:52:26;97811.31;;;7.46;100.00
21361;BME280;10839;43.206;23.550;2024-02-21T03:54:51;97803.56;;;7.35;100.00
21361;BME280;10839;43.206;23.550;2024-02-21T03:57:17;97814.13;;;7.37;100.00
21361;BME280;10839;43.206;23.550;2024-02-21T03:59:42;97807.03;;;7.53;100.00
21361;BME280;10839;43.206;23.550;2024-02-21T04:02:08;97808.75;;;7.70;100.00
21361;BME280;10839;43.206;23.550;2024-02-21T04:04:35;97805.97;;;7.46;100.00
21361;BME280;10839;43.206;23.550;2024-02-21T04:07:04;97806.91;;;7.63;100.00
21361;BME280;10839;43.206;23.550;2024-02-21T04:09:32;97804.09;;;7.80;100.00
21361;BME280;10839;43.206;23.550;2024-02-21T04:12:00;97808.31;;;7.83;100.00
21361;BME280;10839;43.206;23.550;2024-02-21T04:14:26;97801.06;;;7.75;100.00
21361;BME280;10839;43.206;23.550;2024-02-21T04:16:51;97806.50;;;7.92;100.00
21361;BME280;10839;43.206;23.550;2024-02-21T04:19:17;97812.06;;;7.56;100.00
21361;BME280;10839;43.206;23.550;2024-02-21T04:21:42;97803.56;;;7.35;100.00
21361;BME280;10839;43.206;23.550;2024-02-21T04:24:08;97810.06;;;7.33;100.00
21361;BME280;10839;43.206;23.550;2024-02-21T04:26:33;97802.00;;;7.25;100.00
21361;BME280;10839;43.206;23.550;2024-02-21T04:28:59;97814.22;;;7.27;100.00
21361;BME280;10839;43.206;23.550;2024-02-21T04:31:25;97805.78;;;7.14;100.00
21361;BME280;10839;43.206;23.550;2024-02-21T04:33:50;97812.78;;;7.15;100.00
21361;BME280;10839;43.206;23.550;2024-02-21T04:36:16;97814.06;;;7.29;100.00
21361;BME280;10839;43.206;23.550;2024-02-21T04:38:41;97817.59;;;7.29;100.00
21361;BME280;10839;43.206;23.550;2024-02-21T04:41:07;97819.16;;;7.14;100.00
21361;BME280;10839;43.206;23.550;2024-02-21T04:43:33;97818.84;;;7.17;100.00
21361;BME280;10839;43.206;23.550;2024-02-21T04:45:58;97818.78;;;7.35;100.00
21361;BME280;10839;43.206;23.550;2024-02-21T04:48:24;97831.69;;;7.39;100.00
21361;BME280;10839;43.206;23.550;2024-02-21T04:50:49;97816.06;;;7.27;100.00
21361;BME280;10839;43.206;23.550;2024-02-21T04:53:15;97825.28;;;7.32;100.00
21361;BME280;10839;43.206;23.550;2024-02-21T04:55:41;97817.94;;;7.34;100.00
21361;BME280;10839;43.206;23.550;2024-02-21T04:58:07;97818.69;;;7.44;100.00
21361;BME280;10839;43.206;23.550;2024-02-21T05:00:33;97823.50;;;7.41;100.00
21361;BME280;10839;43.206;23.550;2024-02-21T05:02:58;97811.53;;;7.27;100.00
21361;BME280;10839;43.206;23.550;2024-02-21T05:05:24;97815.63;;;7.39;100.00
21361;BME280;10839;43.206;23.550;2024-02-21T05:07:49;97815.91;;;7.28;100.00
21361;BME280;10839;43.206;23.550;2024-02-21T05:10:15;97798.44;;;7.16;100.00
21361;BME280;10839;43.206;23.550;2024-02-21T05:12:40;97817.00;;;7.18;100.00
21361;BME280;10839;43.206;23.550;2024-02-21T05:15:06;97814.91;;;7.29;100.00
21361;BME280;10839;43.206;23.550;2024-02-21T05:17:32;97813.97;;;7.13;100.00
21361;BME280;10839;43.206;23.550;2024-02-21T05:19:57;97805.25;;;7.36;100.00
21361;BME280;10839;43.206;23.550;2024-02-21T05:22:23;97813.00;;;7.47;100.00
21361;BME280;10839;43.206;23.550;2024-02-21T05:24:48;97802.63;;;7.44;100.00
21361;BME280;10839;43.206;23.550;2024-02-21T05:27:13;97817.72;;;7.53;100.00
21361;BME280;10839;43.206;23.550;2024-02-21T05:29:39;97811.44;;;7.37;100.00
21361;BME280;10839;43.206;23.550;2024-02-21T05:32:05;97815.50;;;7.49;100.00
21361;BME280;10839;43.206;23.550;2024-02-21T05:34:30;97812.06;;;7.31;100.00
21361;BME280;10839;43.206;23.550;2024-02-21T05:36:56;97822.56;;;7.24;100.00
21361;BME280;10839;43.206;23.550;2024-02-21T05:39:22;97816.00;;;7.44;100.00
21361;BME280;10839;43.206;23.550;2024-02-21T05:41:49;97805.97;;;7.46;100.00
21361;BME280;10839;43.206;23.550;2024-02-21T05:44:15;97809.94;;;7.42;100.00
21361;BME280;10839;43.206;23.550;2024-02-21T05:46:40;97825.06;;;7.51;100.00
21361;BME280;10839;43.206;23.550;2024-02-21T05:49:06;97814.38;;;7.51;100.00
21361;BME280;10839;43.206;23.550;2024-02-21T05:51:33;97830.59;;;7.50;100.00
21361;BME280;10839;43.206;23.550;2024-02-21T05:53:58;97825.06;;;7.51;100.00
21361;BME280;10839;43.206;23.550;2024-02-21T05:56:24;97838.19;;;7.62;100.00
21361;BME280;10839;43.206;23.550;2024-02-21T05:58:49;97831.88;;;7.71;100.00
21361;BME280;10839;43.206;23.550;2024-02-21T06:01:15;97831.22;;;7.77;100.00
21361;BME280;10839;43.206;23.550;2024-02-21T06:03:40;97838.38;;;7.69;100.00
21361;BME280;10839;43.206;23.550;2024-02-21T06:06:06;97822.25;;;7.95;100.00
21361;BME280;10839;43.206;23.550;2024-02-21T06:08:32;97834.06;;;8.18;98.64
21361;BME280;10839;43.206;23.550;2024-02-21T06:10:57;97851.09;;;8.09;99.29
21361;BME280;10839;43.206;23.550;2024-02-21T06:13:26;97844.66;;;7.86;100.00
21361;BME280;10839;43.206;23.550;2024-02-21T06:15:52;97849.09;;;8.11;100.00
21361;BME280;10839;43.206;23.550;2024-02-21T06:18:18;97851.81;;;8.19;98.49
21361;BME280;10839;43.206;23.550;2024-02-21T06:20:44;97849.13;;;8.19;97.27
21361;BME280;10839;43.206;23.550;2024-02-21T06:23:12;97856.94;;;8.46;95.92
21361;BME280;10839;43.206;23.550;2024-02-21T06:25:38;97853.31;;;8.79;94.29
21361;BME280;10839;43.206;23.550;2024-02-21T06:28:04;97860.13;;;8.49;95.98
21361;BME280;10839;43.206;23.550;2024-02-21T06:30:29;97862.63;;;8.35;96.58
21361;BME280;10839;43.206;23.550;2024-02-21T06:32:55;97868.00;;;8.35;98.40
21361;BME280;10839;43.206;23.550;2024-02-21T06:35:21;97864.47;;;8.42;97.78
21361;BME280;10839;43.206;23.550;2024-02-21T06:37:50;97869.00;;;8.42;98.47
21361;BME280;10839;43.206;23.550;2024-02-21T06:40:17;97853.50;;;8.20;98.52
21361;BME280;10839;43.206;23.550;2024-02-21T06:42:42;97867.00;;;8.44;96.04
21361;BME280;10839;43.206;23.550;2024-02-21T06:45:08;97863.34;;;8.77;96.93
21361;BME280;10839;43.206;23.550;2024-02-21T06:47:34;97859.34;;;8.73;93.55
21361;BME280;10839;43.206;23.550;2024-02-21T06:49:59;97871.56;;;8.51;95.51
21361;BME280;10839;43.206;23.550;2024-02-21T06:52:25;97872.41;;;8.60;95.71
21361;BME280;10839;43.206;23.550;2024-02-21T06:54:51;97872.44;;;8.92;93.15
21361;BME280;10839;43.206;23.550;2024-02-21T06:57:16;97860.66;;;8.69;93.33
21361;BME280;10839;43.206;23.550;2024-02-21T06:59:42;97872.09;;;8.79;94.72
21361;BME280;10839;43.206;23.550;2024-02-21T07:02:08;97875.47;;;9.21;92.80
21361;BME280;10839;43.206;23.550;2024-02-21T07:04:34;97870.38;;;9.58;89.73
21361;BME280;10839;43.206;23.550;2024-02-21T07:06:59;97869.06;;;9.30;88.55
21361;BME280;10839;43.206;23.550;2024-02-21T07:09:25;97869.41;;;9.19;91.37
21361;BME280;10839;43.206;23.550;2024-02-21T07:11:50;97869.91;;;9.55;88.59
21361;BME280;10839;43.206;23.550;2024-02-21T07:14:17;97872.66;;;9.85;87.42
21361;BME280;10839;43.206;23.550;2024-02-21T07:16:43;97875.59;;;10.06;86.05
21361;BME280;10839;43.206;23.550;2024-02-21T07:19:08;97874.66;;;11.14;84.06
21361;BME280;10839;43.206;23.550;2024-02-21T07:21:34;97868.81;;;11.99;80.76
21361;BME280;10839;43.206;23.550;2024-02-21T07:23:59;97877.53;;;12.01;80.08
21361;BME280;10839;43.206;23.550;2024-02-21T07:26:25;97855.75;;;11.59;78.81
21361;BME280;10839;43.206;23.550;2024-02-21T07:28:50;97876.88;;;11.10;83.01
21361;BME280;10839;43.206;23.550;2024-02-21T07:31:16;97882.03;;;11.57;81.73
21361;BME280;10839;43.206;23.550;2024-02-21T07:33:41;97876.31;;;12.83;77.56
21361;BME280;10839;43.206;23.550;2024-02-21T07:36:07;97883.81;;;14.74;68.42
21361;BME280;10839;43.206;23.550;2024-02-21T07:38:36;97882.31;;;16.04;61.93
21361;BME280;10839;43.206;23.550;2024-02-21T07:41:02;97890.16;;;18.38;54.97
21361;BME280;10839;43.206;23.550;2024-02-21T07:43:29;97881.59;;;19.77;49.53
21361;BME280;10839;43.206;23.550;2024-02-21T07:45:55;97882.69;;;18.27;49.66
21361;BME280;10839;43.206;23.550;2024-02-21T07:48:21;97877.75;;;15.59;56.55
21361;BME280;10839;43.206;23.550;2024-02-21T07:50:51;97881.03;;;13.59;64.51
21361;BME280;10839;43.206;23.550;2024-02-21T07:53:16;97868.13;;;13.33;68.51
21361;BME280;10839;43.206;23.550;2024-02-21T07:55:42;97882.66;;;13.11;68.84
21361;BME280;10839;43.206;23.550;2024-02-21T07:58:07;97882.81;;;12.88;68.54
21361;BME280;10839;43.206;23.550;2024-02-21T08:00:33;97875.53;;;13.04;69.76
21361;BME280;10839;43.206;23.550;2024-02-21T08:02:59;97875.88;;;13.43;68.48
21361;BME280;10839;43.206;23.550;2024-02-21T08:05:24;97874.34;;;13.13;70.29
21361;BME280;10839;43.206;23.550;2024-02-21T08:07:50;97885.69;;;13.44;67.99
21361;BME280;10839;43.206;23.550;2024-02-21T08:10:15;97871.09;;;12.46;72.88
21361;BME280;10839;43.206;23.550;2024-02-21T08:12:42;97881.63;;;13.82;69.02
21361;BME280;10839;43.206;23.550;2024-02-21T08:15:08;97869.34;;;13.10;69.59
21361;BME280;10839;43.206;23.550;2024-02-21T08:17:36;97866.50;;;13.66;69.46
21361;BME280;10839;43.206;23.550;2024-02-21T08:20:03;97871.47;;;13.63;70.62
21361;BME280;10839;43.206;23.550;2024-02-21T08:22:29;97870.94;;;12.68;73.59
21361;BME280;10839;43.206;23.550;2024-02-21T08:24:55;97874.88;;;14.33;69.36
21361;BME280;10839;43.206;23.550;2024-02-21T08:27:20;97876.88;;;16.17;62.94
21361;BME280;10839;43.206;23.550;2024-02-21T08:29:46;97874.13;;;16.87;57.32
21361;BME280;10839;43.206;23.550;2024-02-21T08:32:12;97877.03;;;16.92;57.05
21361;BME280;10839;43.206;23.550;2024-02-21T08:34:37;97864.19;;;16.68;58.28
21361;BME280;10839;43.206;23.550;2024-02-21T08:37:03;97868.09;;;15.30;59.11
21361;BME280;10839;43.206;23.550;2024-02-21T08:39:29;97871.25;;;15.99;55.92
21361;BME280;10839;43.206;23.550;2024-02-21T08:41:56;97857.16;;;16.47;54.09
21361;BME280;10839;43.206;23.550;2024-02-21T08:44:27;97862.50;;;15.71;55.64
21361;BME280;10839;43.206;23.550;2024-02-21T08:46:53;97870.59;;;15.12;55.89
21361;BME280;10839;43.206;23.550;2024-02-21T08:49:18;97860.00;;;14.57;58.55
21361;BME280;10839;43.206;23.550;2024-02-21T08:51:44;97864.50;;;16.91;52.52
21361;BME280;10839;43.206;23.550;2024-02-21T08:54:09;97850.78;;;17.73;49.76
21361;BME280;10839;43.206;23.550;2024-02-21T08:56:35;97870.81;;;15.36;54.01
21361;BME280;10839;43.206;23.550;2024-02-21T08:59:01;97869.00;;;14.70;56.93
21361;BME280;10839;43.206;23.550;2024-02-21T09:01:27;97858.03;;;14.91;57.91
21361;BME280;10839;43.206;23.550;2024-02-21T09:03:52;97863.47;;;14.44;57.38
21361;BME280;10839;43.206;23.550;2024-02-21T09:06:19;97859.41;;;14.68;56.03
21361;BME280;10839;43.206;23.550;2024-02-21T09:08:48;97859.31;;;16.19;51.64
21361;BME280;10839;43.206;23.550;2024-02-21T09:11:13;97854.66;;;16.46;50.49
21361;BME280;10839;43.206;23.550;2024-02-21T09:13:39;97853.19;;;16.37;50.81
21361;BME280;10839;43.206;23.550;2024-02-21T09:16:05;97853.63;;;16.91;48.80
21361;BME280;10839;43.206;23.550;2024-02-21T09:18:31;97845.28;;;16.86;49.02
21361;BME280;10839;43.206;23.550;2024-02-21T09:20:57;97857.88;;;17.49;48.56
21361;BME280;10839;43.206;23.550;2024-02-21T09:23:25;97862.50;;;17.42;50.08
21361;BME280;10839;43.206;23.550;2024-02-21T09:25:51;97859.53;;;17.50;47.54
21361;BME280;10839;43.206;23.550;2024-02-21T09:28:16;97848.00;;;17.79;46.12
21361;BME280;10839;43.206;23.550;2024-02-21T09:30:41;97852.47;;;18.35;43.71
21361;BME280;10839;43.206;23.550;2024-02-21T09:33:07;97861.25;;;18.73;43.59
21361;BME280;10839;43.206;23.550;2024-02-21T09:35:33;97853.88;;;18.73;42.95
21361;BME280;10839;43.206;23.550;2024-02-21T09:37:59;97855.75;;;19.39;41.54
21361;BME280;10839;43.206;23.550;2024-02-21T09:40:25;97858.50;;;19.21;41.83
21361;BME280;10839;43.206;23.550;2024-02-21T09:43:00;97852.13;;;19.56;41.33
21361;BME280;10839;43.206;23.550;2024-02-21T09:45:28;97857.66;;;19.20;41.21
21361;BME280;10839;43.206;23.550;2024-02-21T09:50:43;97854.50;;;19.05;41.77
21361;BME280;10839;43.206;23.550;2024-02-21T09:53:12;97850.44;;;19.26;41.21
21361;BME280;10839;43.206;23.550;2024-02-21T09:55:39;97850.06;;;19.22;41.90
21361;BME280;10839;43.206;23.550;2024-02-21T09:58:07;97848.50;;;18.85;42.05
21361;BME280;10839;43.206;23.550;2024-02-21T10:00:34;97854.09;;;18.36;42.22
21361;BME280;10839;43.206;23.550;2024-02-21T10:03:00;97844.63;;;18.20;42.70
21361;BME280;10839;43.206;23.550;2024-02-21T10:05:25;97842.84;;;17.71;43.45
21361;BME280;10839;43.206;23.550;2024-02-21T10:07:52;97836.66;;;16.45;45.88
21361;BME280;10839;43.206;23.550;2024-02-21T10:10:18;97845.47;;;16.34;46.53
21361;BME280;10839;43.206;23.550;2024-02-21T10:12:50;97836.53;;;17.46;45.51
21361;BME280;10839;43.206;23.550;2024-02-21T10:15:20;97836.06;;;18.17;44.22
21361;BME280;10839;43.206;23.550;2024-02-21T10:17:47;97839.16;;;18.63;43.54
21361;BME280;10839;43.206;23.550;2024-02-21T10:20:13;97837.75;;;18.36;42.69
21361;BME280;10839;43.206;23.550;2024-02-21T10:22:40;97828.84;;;18.47;42.12
21361;BME280;10839;43.206;23.550;2024-02-21T10:25:09;97813.78;;;17.83;42.99
21361;BME280;10839;43.206;23.550;2024-02-21T10:27:37;97826.16;;;17.61;43.52
21361;BME280;10839;43.206;23.550;2024-02-21T10:30:13;97826.94;;;17.37;44.58
21361;BME280;10839;43.206;23.550;2024-02-21T10:32:52;97813.28;;;17.19;45.41
21361;BME280;10839;43.206;23.550;2024-02-21T10:35:29;97805.47;;;16.98;44.72
21361;BME280;10839;43.206;23.550;2024-02-21T10:41:00;97813.91;;;16.46;46.56
21361;BME280;10839;43.206;23.550;2024-02-21T10:43:35;97820.97;;;15.57;49.03
21361;BME280;10839;43.206;23.550;2024-02-21T10:46:02;97832.88;;;15.69;49.54
21361;BME280;10839;43.206;23.550;2024-02-21T10:48:39;97846.03;;;15.46;51.31
21361;BME280;10839;43.206;23.550;2024-02-21T10:51:15;97859.66;;;14.79;54.85
21361;BME280;10839;43.206;23.550;2024-02-21T10:56:38;97851.25;;;12.53;59.71
21361;BME280;10839;43.206;23.550;2024-02-21T10:59:08;97843.16;;;12.74;60.02
21361;BME280;10839;43.206;23.550;2024-02-21T11:01:34;97826.78;;;12.76;62.60
21361;BME280;10839;43.206;23.550;2024-02-21T11:04:04;97838.06;;;12.29;65.74
21361;BME280;10839;43.206;23.550;2024-02-21T11:06:31;97838.94;;;11.72;69.49
21361;BME280;10839;43.206;23.550;2024-02-21T11:09:09;97825.38;;;12.44;66.17
21361;BME280;10839;43.206;23.550;2024-02-21T11:11:35;97825.22;;;12.31;65.50
21361;BME280;10839;43.206;23.550;2024-02-21T11:16:39;97808.50;;;12.21;62.55
21361;BME280;10839;43.206;23.550;2024-02-21T11:19:09;97807.06;;;12.75;61.47
21361;BME280;10839;43.206;23.550;2024-02-21T11:21:37;97804.06;;;12.49;60.03
21361;BME280;10839;43.206;23.550;2024-02-21T11:24:04;97797.16;;;12.11;59.80
21361;BME280;10839;43.206;23.550;2024-02-21T11:26:30;97796.19;;;12.69;58.42
21361;BME280;10839;43.206;23.550;2024-02-21T11:29:02;97793.41;;;13.26;56.82
21361;BME280;10839;43.206;23.550;2024-02-21T11:31:44;97779.16;;;13.11;56.15
21361;BME280;10839;43.206;23.550;2024-02-21T11:34:11;97783.81;;;13.23;56.24
21361;BME280;10839;43.206;23.550;2024-02-21T11:36:49;97788.97;;;13.46;55.25
21361;BME280;10839;43.206;23.550;2024-02-21T11:39:23;97783.31;;;13.13;55.25
21361;BME280;10839;43.206;23.550;2024-02-21T11:42:06;97784.41;;;12.76;57.89
21361;BME280;10839;43.206;23.550;2024-02-21T11:44:34;97788.97;;;12.97;58.99
21361;BME280;10839;43.206;23.550;2024-02-21T11:47:00;97782.22;;;13.08;59.38
21361;BME280;10839;43.206;23.550;2024-02-21T11:49:28;97778.69;;;12.65;61.85
21361;BME280;10839;43.206;23.550;2024-02-21T11:51:58;97770.16;;;12.82;61.84
21361;BME280;10839;43.206;23.550;2024-02-21T11:54:24;97764.59;;;13.12;61.44
21361;BME280;10839;43.206;23.550;2024-02-21T11:56:49;97768.84;;;13.21;61.75
21361;BME280;10839;43.206;23.550;2024-02-21T11:59:15;97772.09;;;12.67;63.19
21361;BME280;10839;43.206;23.550;2024-02-21T12:01:40;97771.09;;;12.96;62.53
21361;BME280;10839;43.206;23.550;2024-02-21T12:04:06;97762.16;;;12.96;61.43
21361;BME280;10839;43.206;23.550;2024-02-21T12:06:32;97748.41;;;12.27;60.51
21361;BME280;10839;43.206;23.550;2024-02-21T12:08:58;97756.38;;;12.35;59.65
21361;BME280;10839;43.206;23.550;2024-02-21T12:11:23;97754.63;;;12.91;57.80
21361;BME280;10839;43.206;23.550;2024-02-21T12:14:02;97761.13;;;12.54;57.34
21361;BME280;10839;43.206;23.550;2024-02-21T12:16:30;97752.56;;;12.30;58.37
21361;BME280;10839;43.206;23.550;2024-02-21T12:18:57;97756.88;;;12.87;56.00
21361;BME280;10839;43.206;23.550;2024-02-21T12:21:27;97758.69;;;13.02;56.59
21361;BME280;10839;43.206;23.550;2024-02-21T12:23:55;97762.69;;;12.42;60.17
21361;BME280;10839;43.206;23.550;2024-02-21T12:26:21;97760.25;;;12.47;63.90
21361;BME280;10839;43.206;23.550;2024-02-21T12:28:47;97765.56;;;12.05;68.92
21361;BME280;10839;43.206;23.550;2024-02-21T12:31:13;97764.25;;;11.43;70.45
21361;BME280;10839;43.206;23.550;2024-02-21T12:33:39;97757.13;;;10.84;71.96
21361;BME280;10839;43.206;23.550;2024-02-21T12:36:05;97759.16;;;10.82;74.79
21361;BME280;10839;43.206;23.550;2024-02-21T12:38:30;97750.66;;;10.93;74.83
21361;BME280;10839;43.206;23.550;2024-02-21T12:40:56;97745.59;;;10.53;76.16
21361;BME280;10839;43.206;23.550;2024-02-21T12:43:26;97745.88;;;10.12;81.22
21361;BME280;10839;43.206;23.550;2024-02-21T12:45:51;97735.25;;;10.42;77.19
21361;BME280;10839;43.206;23.550;2024-02-21T12:48:17;97741.34;;;10.36;79.02
21361;BME280;10839;43.206;23.550;2024-02-21T12:50:49;97739.47;;;9.83;80.48
21361;BME280;10839;43.206;23.550;2024-02-21T12:53:17;97739.34;;;9.76;83.77
21361;BME280;10839;43.206;23.550;2024-02-21T12:55:45;97736.78;;;10.13;81.80
21361;BME280;10839;43.206;23.550;2024-02-21T12:58:11;97742.16;;;10.13;80.67
21361;BME280;10839;43.206;23.550;2024-02-21T13:00:36;97734.59;;;9.86;83.25